Time;durP1;ratioP1;P1;durP2;ratioP2;P2;SDS_P1;SDS_P2;PMS_P1;PMS_P2;Temp;Humidity;BMP_temperature;BMP_pressure;BME280_temperature;BME280_humidity;BME280_pressure;Samples;Min_cycle;Max_cycle;Signal;HPM_P1;HPM_P2
2021/03/14 00:01:43;;;;;;;3.75;1.10;;;;;;;5.68;73.21;99119.78;5056976;28;20033;-82
2021/03/14 00:04:11;;;;;;;2.05;0.80;;;;;;;5.76;72.98;99120.31;5040417;28;20073;-82
2021/03/14 00:06:38;;;;;;;3.28;1.02;;;;;;;5.75;72.83;99129.09;5054627;28;20080;-83
2021/03/14 00:09:05;;;;;;;5.20;1.15;;;;;;;5.76;73.80;99130.81;5036712;28;20061;-83
2021/03/14 00:11:32;;;;;;;3.42;1.02;;;;;;;5.73;73.43;99135.34;5019362;28;20049;-82
2021/03/14 00:13:59;;;;;;;4.20;1.70;;;;;;;5.67;73.94;99123.34;5034991;28;20149;-82
2021/03/14 00:16:28;;;;;;;4.70;1.27;;;;;;;5.62;73.60;99135.88;5019552;28;20140;-82
2021/03/14 00:18:55;;;;;;;4.10;1.20;;;;;;;5.57;73.70;99136.06;5036073;28;20489;-82
2021/03/14 00:22:10;;;;;;;3.85;0.93;;;;;;;5.58;74.36;99129.91;5019340;28;20057;-81
2021/03/14 00:24:36;;;;;;;4.30;1.35;;;;;;;5.49;74.38;99129.47;5040429;28;20057;-81
2021/03/14 00:27:03;;;;;;;5.20;1.17;;;;;;;5.46;75.10;99140.13;5035723;28;20053;-86
2021/03/14 00:29:41;;;;;;;3.42;1.20;;;;;;;5.44;74.85;99147.22;5041024;28;20057;-83
2021/03/14 00:32:07;;;;;;;4.50;1.35;;;;;;;5.39;75.26;99138.69;5016926;28;20168;-82
2021/03/14 00:34:34;;;;;;;3.42;1.45;;;;;;;5.33;75.11;99141.59;5037779;28;20097;-84
2021/03/14 00:37:00;;;;;;;3.83;1.30;;;;;;;5.24;76.21;99148.09;5040641;28;20128;-83
2021/03/14 00:39:30;;;;;;;3.88;1.42;;;;;;;5.19;76.06;99150.97;5042296;28;20057;-83
2021/03/14 00:41:56;;;;;;;4.57;1.02;;;;;;;5.14;76.33;99149.47;5019497;28;20066;-83
2021/03/14 00:44:24;;;;;;;3.50;1.10;;;;;;;5.13;76.42;99143.34;5039444;28;20053;-83
2021/03/14 00:46:50;;;;;;;3.70;1.13;;;;;;;5.09;76.07;99159.28;5021710;28;20046;-83
2021/03/14 00:49:24;;;;;;;8.00;1.20;;;;;;;5.13;76.63;99161.72;5036889;28;20560;-81
2021/03/14 00:51:51;;;;;;;6.20;1.48;;;;;;;5.20;76.46;99159.66;5043811;28;20045;-83
2021/03/14 00:54:18;;;;;;;8.43;1.52;;;;;;;5.18;76.56;99167.63;5043258;28;20081;-84
2021/03/14 00:56:45;;;;;;;6.43;1.33;;;;;;;5.14;76.55;99166.06;5048208;28;20128;-82
2021/03/14 00:59:13;;;;;;;6.05;1.52;;;;;;;5.08;77.53;99166.31;5053530;28;20050;-82
2021/03/14 01:01:40;;;;;;;6.28;1.25;;;;;;;5.06;77.07;99176.03;5021845;28;20038;-87
2021/03/14 01:04:16;;;;;;;3.30;1.42;;;;;;;5.07;77.21;99179.50;5049508;28;20033;-84
2021/03/14 01:06:42;;;;;;;4.88;1.50;;;;;;;5.10;77.93;99174.97;5042805;28;20135;-82
2021/03/14 01:09:11;;;;;;;5.57;1.20;;;;;;;5.12;77.09;99175.75;5058680;28;20045;-83
2021/03/14 01:11:37;;;;;;;5.22;1.40;;;;;;;5.13;77.41;99185.34;5057294;28;20113;-82
2021/03/14 01:14:04;;;;;;;3.95;1.23;;;;;;;5.15;76.64;99188.75;5033800;28;20088;-82
2021/03/14 01:16:30;;;;;;;4.25;0.98;;;;;;;5.18;77.35;99183.38;5052185;28;20134;-83
2021/03/14 01:18:57;;;;;;;2.85;1.10;;;;;;;5.19;77.06;99187.69;5052130;28;20045;-82
2021/03/14 01:21:24;;;;;;;5.28;1.05;;;;;;;5.23;77.13;99194.50;5021815;28;20054;-83
2021/03/14 01:23:51;;;;;;;5.72;1.10;;;;;;;5.25;77.14;99203.16;5039400;28;20045;-82
2021/03/14 01:26:17;;;;;;;3.63;1.20;;;;;;;5.29;76.89;99207.38;5030089;28;20049;-84
2021/03/14 01:28:47;;;;;;;4.97;1.10;;;;;;;5.38;76.51;99219.22;5030398;28;20077;-83
2021/03/14 01:31:14;;;;;;;4.07;0.98;;;;;;;5.44;76.60;99218.09;5038708;28;20046;-83
2021/03/14 01:33:41;;;;;;;3.28;0.90;;;;;;;5.45;75.68;99215.41;5040504;28;20057;-82
2021/03/14 01:36:08;;;;;;;3.25;1.00;;;;;;;5.51;75.81;99222.16;5016939;28;20408;-83
2021/03/14 01:38:35;;;;;;;7.15;1.35;;;;;;;5.48;76.28;99219.69;5028909;28;20457;-84
2021/03/14 01:41:02;;;;;;;6.28;1.45;;;;;;;5.45;76.53;99220.66;5030763;28;20129;-86
2021/03/14 01:43:35;;;;;;;5.88;1.65;;;;;;;5.42;76.71;99227.81;5034619;28;20081;-84
2021/03/14 01:46:07;;;;;;;6.22;1.13;;;;;;;5.38;76.61;99232.34;5005132;28;20468;-84
2021/03/14 01:48:35;;;;;;;4.47;1.67;;;;;;;5.38;76.73;99236.72;5041702;28;20049;-82
2021/03/14 01:51:03;;;;;;;4.25;1.20;;;;;;;5.35;76.74;99239.53;5039188;28;20046;-83
2021/03/14 01:53:30;;;;;;;7.05;1.23;;;;;;;5.35;76.57;99244.78;5043607;28;20122;-82
2021/03/14 01:55:57;;;;;;;4.20;1.30;;;;;;;5.31;77.30;99240.56;5043906;28;20084;-82
2021/03/14 01:59:01;;;;;;;6.63;1.75;;;;;;;5.27;77.47;99239.84;5022571;28;20053;-82
2021/03/14 02:01:28;;;;;;;5.38;1.20;;;;;;;5.20;77.75;99233.13;5022818;28;20081;-82
2021/03/14 02:03:57;;;;;;;5.72;1.30;;;;;;;5.12;78.47;99243.13;5042113;28;20073;-82
2021/03/14 02:06:23;;;;;;;6.90;1.30;;;;;;;5.08;78.67;99249.41;5045910;28;20088;-82
2021/03/14 02:09:43;;;;;;;3.53;1.05;;;;;;;5.13;78.53;99250.94;5041733;28;20116;-82
2021/03/14 02:12:16;;;;;;;5.88;1.45;;;;;;;5.16;77.99;99253.44;5039214;28;20067;-83
2021/03/14 02:14:43;;;;;;;5.00;1.20;;;;;;;5.14;78.78;99257.91;5023876;28;20060;-81
2021/03/14 02:17:16;;;;;;;6.30;1.55;;;;;;;5.11;79.27;99254.53;5034127;28;20053;-82
2021/03/14 02:19:53;;;;;;;2.95;1.25;;;;;;;5.20;78.65;99254.13;5031609;28;20396;-83
2021/03/14 02:22:22;;;;;;;3.63;1.40;;;;;;;5.27;78.75;99264.31;5043211;28;20144;-84
2021/03/14 02:24:57;;;;;;;5.57;1.73;;;;;;;5.34;78.37;99266.69;5047585;28;20057;-80
2021/03/14 02:27:33;;;;;;;5.50;1.50;;;;;;;5.24;79.39;99269.69;5054380;28;20045;-81
2021/03/14 02:30:02;;;;;;;5.30;1.63;;;;;;;5.18;80.55;99267.34;5027801;28;20164;-83
2021/03/14 02:32:31;;;;;;;6.88;1.73;;;;;;;5.13;80.69;99260.59;5038458;28;20065;-85
2021/03/14 02:35:01;;;;;;;6.13;1.73;;;;;;;5.07;80.67;99264.31;5032508;28;20050;-84
2021/03/14 02:37:29;;;;;;;7.15;1.58;;;;;;;5.07;81.85;99273.94;5016569;28;20068;-84
2021/03/14 02:39:56;;;;;;;4.63;1.30;;;;;;;5.17;81.45;99281.38;5018438;28;20420;-84
2021/03/14 02:42:25;;;;;;;6.10;1.67;;;;;;;5.20;81.42;99290.88;5034216;28;20076;-83
2021/03/14 02:44:53;;;;;;;5.03;1.30;;;;;;;5.20;81.47;99273.34;5018365;28;20133;-83
2021/03/14 02:47:21;;;;;;;6.63;1.85;;;;;;;5.12;82.59;99280.72;5036727;28;20049;-85
2021/03/14 02:50:00;;;;;;;9.48;1.90;;;;;;;5.08;83.15;99284.38;5018752;28;20105;-83
2021/03/14 02:52:28;;;;;;;4.50;1.60;;;;;;;5.10;83.25;99293.06;5035127;28;20064;-82
2021/03/14 02:54:57;;;;;;;4.53;1.40;;;;;;;5.14;83.09;99305.13;5038775;28;20053;-81
2021/03/14 02:57:27;;;;;;;4.53;1.50;;;;;;;5.14;83.01;99307.75;5020489;28;20069;-82
2021/03/14 02:59:55;;;;;;;5.20;1.75;;;;;;;5.17;82.94;99309.41;5040871;28;20080;-84
2021/03/14 03:02:22;;;;;;;6.22;1.75;;;;;;;5.15;82.66;99317.34;5035059;28;20422;-82
2021/03/14 03:04:50;;;;;;;4.32;1.48;;;;;;;5.16;82.65;99316.41;5030548;28;20590;-83
2021/03/14 03:07:19;;;;;;;6.07;2.20;;;;;;;5.10;82.66;99315.81;5037220;28;20056;-83
2021/03/14 03:09:50;;;;;;;7.75;1.83;;;;;;;5.07;82.66;99329.91;5034600;28;20496;-82
2021/03/14 03:12:20;;;;;;;7.00;1.88;;;;;;;5.02;83.75;99329.28;5035444;28;20049;-81
2021/03/14 03:14:47;;;;;;;7.07;1.98;;;;;;;5.04;83.14;99329.19;5037040;28;20625;-81
2021/03/14 03:17:14;;;;;;;5.10;2.08;;;;;;;5.01;83.02;99339.81;5021183;28;20049;-82
2021/03/14 03:19:45;;;;;;;4.72;1.50;;;;;;;5.00;82.97;99340.75;5009936;28;20071;-82
2021/03/14 03:22:12;;;;;;;6.63;1.85;;;;;;;4.93;83.35;99346.22;5043249;28;20048;-86
2021/03/14 03:24:39;;;;;;;6.13;1.60;;;;;;;4.98;83.67;99343.41;5054064;28;20034;-82
2021/03/14 03:27:06;;;;;;;4.75;1.80;;;;;;;5.01;81.96;99358.19;5050931;28;20054;-81
2021/03/14 03:29:33;;;;;;;6.20;1.73;;;;;;;5.06;81.93;99356.22;5029199;28;20077;-81
2021/03/14 03:31:59;;;;;;;5.70;1.88;;;;;;;5.13;81.01;99355.91;5031867;28;20053;-82
2021/03/14 03:34:26;;;;;;;6.18;1.65;;;;;;;5.20;79.65;99370.47;5051106;28;20053;-82
2021/03/14 03:36:52;;;;;;;2.85;1.50;;;;;;;5.17;80.33;99375.88;5048468;28;20057;-82
2021/03/14 03:39:24;;;;;;;4.70;1.63;;;;;;;5.10;81.34;99371.78;5038160;28;20501;-84
2021/03/14 03:42:03;;;;;;;5.22;1.60;;;;;;;5.15;81.42;99376.84;5036711;28;20061;-82
2021/03/14 03:44:35;;;;;;;7.38;2.20;;;;;;;5.10;80.93;99376.16;5033614;28;20068;-83
2021/03/14 03:47:06;;;;;;;5.15;2.00;;;;;;;5.09;80.64;99385.81;5037100;28;20057;-86
2021/03/14 03:49:35;;;;;;;4.72;1.60;;;;;;;5.11;81.47;99391.84;5038715;28;20064;-83
2021/03/14 03:52:04;;;;;;;4.53;1.90;;;;;;;5.14;81.62;99391.72;5030519;28;20052;-83
2021/03/14 03:54:31;;;;;;;8.45;1.83;;;;;;;5.18;81.82;99402.97;5044046;28;20072;-83
2021/03/14 03:56:59;;;;;;;7.78;1.80;;;;;;;5.20;81.34;99407.22;5041860;28;20275;-81
2021/03/14 03:59:27;;;;;;;7.30;1.75;;;;;;;5.19;80.91;99410.78;5054642;28;20113;-82
2021/03/14 04:01:57;;;;;;;9.10;1.90;;;;;;;5.14;80.04;99406.63;5056534;28;20053;-85
2021/03/14 04:04:26;;;;;;;4.65;1.60;;;;;;;5.12;79.74;99418.94;5044470;28;20033;-87
2021/03/14 04:06:57;;;;;;;;;;;;;;;5.12;80.26;99429.44;5037519;28;20069;-83
2021/03/14 04:09:24;;;;;;;5.13;1.60;;;;;;;5.12;80.42;99429.44;5052378;28;19909;-90
2021/03/14 04:11:53;;;;;;;5.25;1.67;;;;;;;5.08;80.71;99438.34;5044492;28;20049;-89
2021/03/14 04:14:22;;;;;;;4.68;1.65;;;;;;;5.13;80.81;99439.03;5033520;28;20112;-84
2021/03/14 04:16:51;;;;;;;11.50;1.55;;;;;;;5.17;79.50;99436.22;5047438;28;20120;-85
2021/03/14 04:19:21;;;;;;;4.25;1.40;;;;;;;5.26;79.12;99448.97;5028380;28;20497;-81
2021/03/14 04:21:50;;;;;;;6.72;1.65;;;;;;;5.23;79.39;99449.09;5039997;28;20050;-83
2021/03/14 04:24:18;;;;;;;4.78;1.40;;;;;;;5.26;78.97;99459.47;5030520;28;20042;-82
2021/03/14 04:26:46;;;;;;;3.35;1.30;;;;;;;5.32;78.44;99465.41;5044741;28;20112;-84
2021/03/14 04:29:14;;;;;;;3.58;1.13;;;;;;;5.31;78.09;99474.19;5044373;28;20050;-82
2021/03/14 04:31:43;;;;;;;5.72;1.35;;;;;;;5.23;78.28;99477.09;5028009;28;20125;-84
2021/03/14 04:34:12;;;;;;;3.83;1.30;;;;;;;5.22;78.03;99476.25;5043079;28;20133;-83
2021/03/14 04:36:42;;;;;;;5.53;1.50;;;;;;;5.19;78.42;99481.63;5019523;28;20049;-83
2021/03/14 04:39:09;;;;;;;6.07;1.77;;;;;;;5.17;78.46;99488.72;5043390;28;20064;-86
2021/03/14 04:41:37;;;;;;;7.32;1.50;;;;;;;5.16;79.08;99488.78;5045125;28;20053;-84
2021/03/14 04:44:06;;;;;;;6.43;1.60;;;;;;;5.15;77.79;99493.16;5030721;28;20176;-82
2021/03/14 04:46:33;;;;;;;7.07;1.30;;;;;;;5.14;78.45;99501.09;5042364;28;20072;-85
2021/03/14 04:49:00;;;;;;;3.63;1.30;;;;;;;5.21;77.68;99502.56;5046676;28;20038;-84
2021/03/14 04:51:36;;;;;;;3.63;1.10;;;;;;;5.26;77.20;99516.34;5045768;28;20050;-84
2021/03/14 04:54:04;;;;;;;4.15;1.20;;;;;;;5.29;77.01;99519.72;5053661;28;20116;-86
2021/03/14 04:56:33;;;;;;;3.38;1.50;;;;;;;5.32;77.37;99529.25;5035514;28;20037;-84
2021/03/14 04:59:01;;;;;;;3.40;1.27;;;;;;;5.32;76.64;99526.63;5050034;28;20113;-84
2021/03/14 05:01:30;;;;;;;1.10;1.00;;;;;;;5.31;76.84;99534.56;5048630;28;20076;-84
2021/03/14 05:03:59;;;;;;;2.95;1.25;;;;;;;5.24;76.86;99531.31;5039986;28;20037;-82
2021/03/14 05:06:27;;;;;;;3.00;1.20;;;;;;;5.22;77.76;99536.63;5029278;28;20077;-80
2021/03/14 05:08:53;;;;;;;5.32;1.25;;;;;;;5.19;78.04;99534.13;5048952;28;20059;-82
2021/03/14 05:11:21;;;;;;;4.75;1.00;;;;;;;5.15;77.90;99543.03;5050030;28;20053;-82
2021/03/14 05:13:48;;;;;;;3.22;0.85;;;;;;;5.17;77.84;99545.59;5048889;28;20059;-80
2021/03/14 05:16:17;;;;;;;2.58;1.17;;;;;;;5.12;77.89;99556.25;5039099;28;20053;-81
2021/03/14 05:18:47;;;;;;;3.00;1.10;;;;;;;5.11;78.32;99546.69;5038016;28;20049;-83
2021/03/14 05:21:14;;;;;;;3.60;1.00;;;;;;;5.08;78.72;99553.81;5014614;28;20050;-82
2021/03/14 05:23:42;;;;;;;4.05;1.00;;;;;;;5.03;78.61;99561.88;5040360;28;20060;-83
2021/03/14 05:26:11;;;;;;;0.80;0.63;;;;;;;4.99;78.96;99565.53;5032993;28;20061;-81
2021/03/14 05:28:38;;;;;;;3.20;0.80;;;;;;;5.02;79.29;99559.31;5034703;28;20073;-79
2021/03/14 05:31:27;;;;;;;2.40;0.85;;;;;;;4.92;79.08;99561.41;5001937;28;963570;-82
2021/03/14 05:33:56;;;;;;;2.85;0.80;;;;;;;4.88;79.28;99570.28;5047546;28;20107;-83
2021/03/14 05:36:23;;;;;;;3.30;1.00;;;;;;;4.94;78.30;99572.69;5050026;28;20057;-82
2021/03/14 05:38:50;;;;;;;1.50;0.60;;;;;;;4.92;78.01;99577.13;5037361;28;20050;-82
2021/03/14 05:41:18;;;;;;;1.08;0.60;;;;;;;4.87;78.38;99584.34;5040615;28;20069;-82
2021/03/14 05:43:47;;;;;;;2.72;0.88;;;;;;;4.94;77.67;99593.69;5013580;28;20060;-85
2021/03/14 05:46:14;;;;;;;1.98;0.77;;;;;;;4.93;77.39;99597.22;5018344;28;20049;-83
2021/03/14 05:48:44;;;;;;;3.22;0.63;;;;;;;4.83;77.84;99594.09;5009966;28;20440;-85
2021/03/14 05:51:20;;;;;;;2.80;0.65;;;;;;;4.80;78.25;99602.06;5017327;28;20488;-84
2021/03/14 05:53:50;;;;;;;3.78;0.85;;;;;;;4.80;78.16;99612.56;5035268;28;20539;-83
2021/03/14 05:56:16;;;;;;;2.05;0.60;;;;;;;4.86;78.09;99611.47;5039880;28;20049;-83
2021/03/14 05:58:44;;;;;;;0.98;0.70;;;;;;;4.83;78.19;99619.47;5038221;28;20049;-83
2021/03/14 06:01:17;;;;;;;1.35;0.60;;;;;;;4.89;77.29;99627.09;5038451;28;20112;-82
2021/03/14 06:03:45;;;;;;;1.30;0.70;;;;;;;4.95;77.57;99632.13;5019669;28;20053;-85
2021/03/14 06:06:14;;;;;;;1.75;0.77;;;;;;;5.00;76.93;99632.81;5035367;28;20053;-85
2021/03/14 06:08:43;;;;;;;1.05;0.82;;;;;;;4.98;77.00;99639.03;5016985;28;20053;-85
2021/03/14 06:11:13;;;;;;;1.80;0.82;;;;;;;4.97;76.78;99632.94;5017854;28;20105;-82
2021/03/14 06:13:40;;;;;;;1.77;0.95;;;;;;;4.99;76.96;99640.75;5033208;28;20048;-84
2021/03/14 06:16:07;;;;;;;2.03;0.98;;;;;;;5.00;77.28;99656.44;5032418;28;20057;-83
2021/03/14 06:18:34;;;;;;;2.42;1.00;;;;;;;4.96;77.90;99654.81;5028023;28;20847;-83
2021/03/14 06:21:03;;;;;;;1.60;1.00;;;;;;;4.93;78.25;99653.16;5012213;28;20049;-88
2021/03/14 06:23:30;;;;;;;2.58;1.23;;;;;;;4.97;76.70;99663.56;5031829;28;20148;-83
2021/03/14 06:26:11;;;;;;;2.53;1.25;;;;;;;4.89;76.71;99669.06;5035702;28;20059;-83
2021/03/14 06:28:38;;;;;;;2.03;1.45;;;;;;;4.89;77.88;99674.31;5033369;28;20060;-86
2021/03/14 06:31:19;;;;;;;4.05;1.95;;;;;;;4.93;77.41;99682.03;5032891;28;20049;-83
2021/03/14 06:33:47;;;;;;;2.78;1.90;;;;;;;5.02;76.64;99678.25;5034300;28;20057;-84
2021/03/14 06:36:16;;;;;;;2.25;1.58;;;;;;;5.11;76.08;99675.28;5034802;28;20044;-83
2021/03/14 06:38:43;;;;;;;2.97;1.65;;;;;;;5.11;76.05;99687.53;5034209;28;20049;-85
2021/03/14 06:41:14;;;;;;;4.47;1.80;;;;;;;5.12;75.95;99692.72;5038162;28;20057;-85
2021/03/14 06:43:45;;;;;;;3.63;2.03;;;;;;;5.13;75.84;99704.09;5046783;28;20048;-85
2021/03/14 06:46:21;;;;;;;2.53;1.70;;;;;;;5.11;75.69;99701.50;5049160;28;20080;-86
2021/03/14 06:49:09;;;;;;;4.20;1.80;;;;;;;5.08;75.86;99698.13;5049152;28;20047;-84
2021/03/14 06:54:35;;;;;;;3.08;1.58;;;;;;;5.04;75.13;99707.03;5049130;28;20037;-85
2021/03/14 06:57:01;;;;;;;6.40;2.17;;;;;;;5.06;75.24;99707.81;5055259;28;20081;-82
2021/03/14 06:59:33;;;;;;;3.95;1.70;;;;;;;5.10;75.33;99712.06;5065214;28;20468;-82
2021/03/14 07:02:06;;;;;;;3.28;1.50;;;;;;;5.29;74.57;99721.00;5056298;28;20050;-82
2021/03/14 07:04:36;;;;;;;2.08;1.55;;;;;;;5.55;72.98;99720.88;5050834;28;20067;-84
2021/03/14 07:07:04;;;;;;;4.55;1.70;;;;;;;5.87;72.18;99724.06;5051490;28;20057;-82
2021/03/14 07:09:32;;;;;;;4.65;1.92;;;;;;;6.39;69.91;99733.44;5046019;28;20073;-82
2021/03/14 07:11:59;;;;;;;3.42;1.50;;;;;;;6.98;67.30;99743.25;5043477;28;20041;-84
2021/03/14 07:18:26;;;;;;;2.63;1.33;;;;;;;8.58;62.00;99743.81;5037497;28;20072;-82
2021/03/14 07:20:55;;;;;;;3.70;1.33;;;;;;;8.86;59.45;99759.13;5016700;28;20413;-82
2021/03/14 07:23:34;;;;;;;2.83;1.08;;;;;;;8.62;60.60;99769.97;5021282;28;20139;-82
2021/03/14 07:26:01;;;;;;;3.40;1.08;;;;;;;8.91;58.74;99763.25;5038983;28;20058;-85
2021/03/14 07:28:27;;;;;;;4.82;1.38;;;;;;;9.39;58.10;99761.69;5048994;28;20076;-82
2021/03/14 07:30:56;;;;;;;5.75;1.30;;;;;;;9.75;56.74;99778.25;5046829;28;20056;-82
2021/03/14 07:33:24;;;;;;;3.88;1.67;;;;;;;9.91;55.27;99783.56;5049155;28;20377;-82
2021/03/14 07:35:53;;;;;;;3.90;1.35;;;;;;;10.40;54.56;99787.03;5048329;28;20121;-82
2021/03/14 07:38:20;;;;;;;2.50;1.17;;;;;;;10.65;53.83;99785.66;5051510;28;20172;-86
2021/03/14 07:40:46;;;;;;;3.58;1.20;;;;;;;10.90;52.09;99797.41;5036403;28;20061;-82
2021/03/14 07:43:14;;;;;;;5.43;1.20;;;;;;;10.90;52.49;99802.69;5042126;28;20057;-82
2021/03/14 07:46:18;;;;;;;2.85;1.10;;;;;;;11.02;53.11;99805.59;5019995;28;20406;-82
2021/03/14 07:48:49;;;;;;;4.75;1.73;;;;;;;11.33;51.49;99799.34;5019830;28;20053;-84
2021/03/14 07:51:45;;;;;;;4.53;1.42;;;;;;;11.72;49.80;99801.41;5023713;28;20048;-83
2021/03/14 07:54:22;;;;;;;3.50;1.05;;;;;;;11.91;50.71;99807.31;5036054;28;20088;-83
2021/03/14 07:56:52;;;;;;;4.10;0.93;;;;;;;11.79;50.47;99803.63;5020130;28;20049;-83
2021/03/14 07:59:31;;;;;;;3.17;1.60;;;;;;;12.14;49.15;99808.53;5030445;28;20053;-81
2021/03/14 08:02:16;;;;;;;4.55;1.17;;;;;;;12.17;47.69;99814.50;5014854;28;20132;-84
2021/03/14 08:04:57;;;;;;;4.07;1.40;;;;;;;12.48;47.63;99818.72;5034947;28;20053;-84
2021/03/14 08:07:33;;;;;;;3.80;1.17;;;;;;;12.90;47.63;99823.09;5038151;28;20053;-84
2021/03/14 08:13:29;;;;;;;3.85;1.13;;;;;;;13.61;47.91;99829.88;5031632;28;20053;-82
2021/03/14 08:16:01;;;;;;;4.18;1.33;;;;;;;13.46;47.59;99837.09;5042873;28;20080;-84
2021/03/14 08:21:50;;;;;;;4.40;1.08;;;;;;;14.57;43.43;99847.09;5020933;28;20060;-84
2021/03/14 08:27:40;;;;;;;4.18;1.27;;;;;;;13.63;45.40;99850.09;5024598;28;20049;-83
2021/03/14 08:33:44;;;;;;;2.55;1.02;;;;;;;12.59;46.54;99861.38;5042937;28;20140;-83
2021/03/14 08:36:13;;;;;;;6.25;1.50;;;;;;;11.71;47.99;99868.66;5033119;28;20068;-82
2021/03/14 08:38:57;;;;;;;2.67;1.20;;;;;;;10.44;50.41;99867.97;5047601;28;20065;-82
2021/03/14 08:41:38;;;;;;;2.97;0.90;;;;;;;9.80;53.19;99879.31;5033597;28;20050;-82
2021/03/14 08:47:32;;;;;;;6.80;1.70;;;;;;;8.79;55.42;99878.25;4982662;28;20062;-82
2021/03/14 08:53:11;;;;;;;5.18;1.10;;;;;;;7.99;57.83;99876.69;5009263;28;20053;-82
2021/03/14 08:55:38;;;;;;;3.88;1.55;;;;;;;7.86;61.65;99884.28;5042230;28;20415;-84
2021/03/14 08:58:15;;;;;;;5.03;1.27;;;;;;;7.81;58.97;99873.09;5040783;28;20049;-82
2021/03/14 09:00:42;;;;;;;6.22;1.35;;;;;;;8.00;59.30;99889.81;5028875;28;20437;-82
2021/03/14 09:04:03;;;;;;;3.97;1.42;;;;;;;7.90;59.57;99890.25;5041655;28;20049;-80
2021/03/14 09:06:30;;;;;;;3.28;1.15;;;;;;;7.99;59.09;99897.78;5034078;28;20053;-84
2021/03/14 09:09:02;;;;;;;5.10;1.33;;;;;;;8.05;58.84;99886.94;5052247;28;20080;-79
2021/03/14 09:12:17;;;;;;;3.95;1.23;;;;;;;8.29;58.50;99892.91;5039514;28;20045;-83
2021/03/14 09:14:48;;;;;;;3.85;1.10;;;;;;;8.54;57.41;99890.88;5033892;28;20493;-83
2021/03/14 09:17:19;;;;;;;6.72;1.65;;;;;;;8.47;58.45;99889.47;5034617;28;20055;-82
2021/03/14 09:20:09;;;;;;;6.15;1.27;;;;;;;8.50;58.82;99891.94;5032572;28;20057;-82
2021/03/14 09:22:39;;;;;;;4.15;1.30;;;;;;;8.52;57.91;99878.66;5043329;28;20120;-82
2021/03/14 09:25:10;;;;;;;4.43;1.55;;;;;;;8.65;57.35;99883.34;5028080;28;20073;-81
2021/03/14 09:27:39;;;;;;;5.30;1.67;;;;;;;8.85;57.29;99879.72;5048929;28;20115;-80
2021/03/14 09:30:08;;;;;;;8.43;1.90;;;;;;;9.07;55.87;99883.03;5054228;28;20127;-82
2021/03/14 09:33:04;;;;;;;8.18;1.40;;;;;;;9.38;55.91;99890.31;5046863;28;20072;-83
2021/03/14 09:35:37;;;;;;;4.68;1.40;;;;;;;9.45;54.76;99875.84;5053185;28;20108;-80
2021/03/14 09:38:12;;;;;;;4.13;1.30;;;;;;;9.39;53.42;99891.16;5036906;28;20092;-81
2021/03/14 09:40:44;;;;;;;4.80;1.10;;;;;;;9.21;54.40;99890.28;5043369;28;20126;-80
2021/03/14 09:43:38;;;;;;;4.35;1.40;;;;;;;8.87;53.98;99895.50;5047073;28;20046;-82
2021/03/14 09:46:38;;;;;;;5.45;1.45;;;;;;;8.57;55.37;99895.16;5046249;28;20088;-83
2021/03/14 09:49:12;;;;;;;3.75;1.30;;;;;;;8.63;55.41;99901.03;5028461;28;20057;-83
2021/03/14 09:51:39;;;;;;;3.65;1.25;;;;;;;8.90;54.41;99895.34;5064162;28;20075;-81
2021/03/14 09:54:10;;;;;;;6.75;2.05;;;;;;;9.10;54.24;99908.47;5064991;28;20087;-83
2021/03/14 09:56:36;;;;;;;;;;;;;;;9.22;53.82;99904.34;5046505;28;20079;-82
2021/03/14 09:59:03;;;;;;;5.28;1.35;;;;;;;9.21;53.09;99903.50;5043555;28;19921;-82
2021/03/14 10:01:31;;;;;;;6.53;1.60;;;;;;;9.14;52.77;99902.06;5043306;28;20049;-82
2021/03/14 10:03:59;;;;;;;4.72;1.38;;;;;;;9.03;52.67;99907.88;5043938;28;20049;-81
2021/03/14 10:06:49;;;;;;;6.10;1.50;;;;;;;9.09;52.57;99899.69;5023169;28;20153;-81
2021/03/14 10:09:26;;;;;;;8.18;1.55;;;;;;;9.20;51.98;99899.13;5041045;28;20053;-82
2021/03/14 10:11:57;;;;;;;4.03;1.10;;;;;;;9.26;52.10;99904.13;5048188;28;20140;-83
2021/03/14 10:14:24;;;;;;;4.90;1.45;;;;;;;9.18;52.41;99908.06;5049884;28;20085;-80
2021/03/14 10:16:54;;;;;;;6.00;1.42;;;;;;;9.00;52.33;99900.09;5052592;28;20192;-81
2021/03/14 10:19:22;;;;;;;6.35;1.30;;;;;;;9.00;52.83;99902.75;5055487;28;20053;-81
2021/03/14 10:21:50;;;;;;;5.90;1.45;;;;;;;9.04;53.07;99906.09;5058034;28;20041;-81
2021/03/14 10:24:19;;;;;;;4.32;1.60;;;;;;;9.10;53.04;99911.09;5039374;28;20088;-82
2021/03/14 10:26:59;;;;;;;5.10;1.40;;;;;;;9.11;52.39;99913.66;5057281;28;20067;-86
2021/03/14 10:29:39;;;;;;;7.70;1.67;;;;;;;9.20;52.21;99919.41;5058424;28;20104;-82
2021/03/14 10:32:30;;;;;;;7.88;1.63;;;;;;;8.97;53.37;99917.91;5042449;28;20107;-81
2021/03/14 10:35:03;;;;;;;6.43;1.50;;;;;;;8.84;53.96;99927.31;5056053;28;20053;-81
2021/03/14 10:37:33;;;;;;;3.03;1.40;;;;;;;8.80;54.88;99921.34;5038365;28;20132;-82
2021/03/14 10:40:09;;;;;;;6.20;1.55;;;;;;;8.93;54.73;99925.13;5026120;28;20057;-84
2021/03/14 10:42:40;;;;;;;5.63;1.30;;;;;;;9.34;53.95;99925.72;5039496;28;20075;-82
2021/03/14 10:45:13;;;;;;;5.53;1.50;;;;;;;9.57;53.05;99918.47;5054799;28;20102;-80
2021/03/14 10:48:02;;;;;;;4.63;1.70;;;;;;;9.38;52.98;99923.81;5047567;28;20057;-82
2021/03/14 10:50:31;;;;;;;4.72;1.50;;;;;;;9.12;53.67;99919.81;5021674;28;20116;-82
2021/03/14 10:53:22;;;;;;;5.25;1.50;;;;;;;8.99;53.91;99922.16;5047630;28;20136;-82
2021/03/14 10:56:12;;;;;;;5.80;1.63;;;;;;;9.15;54.63;99923.13;5029837;28;20065;-82
2021/03/14 10:58:44;;;;;;;7.07;1.85;;;;;;;9.47;53.97;99924.19;5045147;28;20056;-82
2021/03/14 11:01:16;;;;;;;7.45;1.50;;;;;;;9.43;53.84;99930.59;5049296;28;20098;-84
2021/03/14 11:07:27;;;;;;;5.75;1.85;;;;;;;9.32;53.96;99932.88;5057233;28;20501;-84
2021/03/14 11:10:26;;;;;;;4.25;1.58;;;;;;;9.19;55.24;99931.78;5053506;28;20052;-82
2021/03/14 11:13:34;;;;;;;5.07;1.85;;;;;;;9.23;57.08;99929.84;5039868;28;20051;-82
2021/03/14 11:16:06;;;;;;;7.03;1.77;;;;;;;9.11;58.07;99936.59;5038849;28;20049;-83
2021/03/14 11:22:47;;;;;;;8.07;2.55;;;;;;;8.71;59.07;99943.72;5040137;28;20079;-80
2021/03/14 11:25:16;;;;;;;6.97;1.75;;;;;;;8.71;57.84;99940.22;5040016;28;20424;-80
2021/03/14 11:27:47;;;;;;;5.22;1.63;;;;;;;8.71;58.88;99940.22;5041804;28;20053;-80
2021/03/14 11:30:38;;;;;;;4.35;1.75;;;;;;;8.69;58.54;99935.03;5041867;28;20052;-81
2021/03/14 11:33:06;;;;;;;4.50;1.63;;;;;;;8.61;58.66;99944.25;5046144;28;20124;-82
2021/03/14 11:36:00;;;;;;;;;;;;;;;8.64;59.47;99941.47;5042121;28;20051;-81
2021/03/14 11:38:42;;;;;;;5.80;1.95;;;;;;;8.49;61.27;99939.53;5020663;28;19995;-83
2021/03/14 11:41:33;;;;;;;7.50;2.50;;;;;;;8.31;62.13;99957.88;5020982;28;20056;-81
2021/03/14 11:44:20;;;;;;;7.13;2.10;;;;;;;8.30;63.67;99955.28;5021860;28;20049;-81
2021/03/14 11:46:53;;;;;;;6.63;1.95;;;;;;;8.19;62.52;99946.97;5037233;28;20080;-81
2021/03/14 11:49:21;;;;;;;8.57;1.70;;;;;;;8.07;62.12;99949.25;5038959;28;20049;-82
2021/03/14 11:51:49;;;;;;;8.43;1.75;;;;;;;8.15;60.95;99946.28;5044289;28;20045;-81
2021/03/14 11:54:20;;;;;;;4.53;1.90;;;;;;;8.24;61.44;99952.91;5047784;28;20497;-81
2021/03/14 11:56:51;;;;;;;5.55;1.70;;;;;;;8.34;60.39;99941.91;5025764;28;20053;-81
2021/03/14 11:59:18;;;;;;;7.00;1.98;;;;;;;8.31;59.63;99943.81;5022662;28;20053;-81
2021/03/14 12:01:47;;;;;;;7.13;1.92;;;;;;;8.19;60.84;99942.56;5025184;28;20140;-81
2021/03/14 12:04:13;;;;;;;3.65;1.80;;;;;;;8.21;60.93;99940.72;5029432;28;20054;-81
2021/03/14 12:06:40;;;;;;;4.95;1.90;;;;;;;8.26;60.78;99944.00;5047132;28;20057;-82
2021/03/14 12:09:07;;;;;;;3.50;1.60;;;;;;;8.29;60.49;99935.97;5045774;28;20163;-82
2021/03/14 12:11:34;;;;;;;6.30;2.33;;;;;;;8.35;60.14;99926.94;5047434;28;20053;-81
2021/03/14 12:14:01;;;;;;;5.22;2.08;;;;;;;8.43;59.94;99935.38;5036070;28;20045;-82
2021/03/14 12:16:30;;;;;;;9.43;2.20;;;;;;;8.49;59.79;99919.28;5040657;28;20057;-82
2021/03/14 12:19:20;;;;;;;7.45;2.03;;;;;;;8.56;58.86;99933.03;5028825;28;20112;-81
2021/03/14 12:22:11;;;;;;;6.50;1.63;;;;;;;8.60;59.26;99924.91;5040386;28;20051;-83
2021/03/14 12:24:39;;;;;;;4.15;1.70;;;;;;;8.65;59.71;99920.28;5049091;28;20473;-81
2021/03/14 12:27:45;;;;;;;10.85;2.00;;;;;;;8.67;59.44;99928.97;5047605;28;20057;-82
2021/03/14 12:30:12;;;;;;;4.05;1.70;;;;;;;8.62;59.32;99917.78;5027912;28;20088;-82
2021/03/14 12:32:40;;;;;;;3.53;1.45;;;;;;;8.50;59.27;99930.69;5051393;28;20060;-83
2021/03/14 12:35:08;;;;;;;4.50;1.80;;;;;;;8.30;59.65;99928.91;5051243;28;20054;-83
2021/03/14 12:37:36;;;;;;;3.35;1.80;;;;;;;8.10;60.47;99930.66;5045469;28;20038;-80
2021/03/14 12:40:03;;;;;;;3.75;1.83;;;;;;;7.91;61.11;99926.25;5039768;28;20052;-83